Time;durP1;ratioP1;P1;durP2;ratioP2;P2;SDS_P1;SDS_P2;PMS_P1;PMS_P2;Temp;Humidity;BMP_temperature;BMP_pressure;BME280_temperature;BME280_humidity;BME280_pressure;Samples;Min_cycle;Max_cycle;Signal;HPM_P1;HPM_P2
2021/04/08 00:03:11;;;;;;;8.40;4.80;;;;;;;5.06;57.21;98247.00;8247202;28;20238;-69
2021/04/08 00:07:13;;;;;;;8.20;4.43;;;;;;;5.12;56.84;98248.63;8255388;28;20206;-69
2021/04/08 00:11:15;;;;;;;7.27;4.30;;;;;;;5.14;56.90;98258.00;8237752;28;20213;-69
2021/04/08 00:15:18;;;;;;;9.03;4.93;;;;;;;4.97;56.38;98262.56;8236725;28;20202;-69
2021/04/08 00:19:20;;;;;;;9.27;4.90;;;;;;;5.13;56.35;98268.28;8236828;28;20202;-68
2021/04/08 00:23:21;;;;;;;10.30;4.53;;;;;;;5.08;55.78;98264.09;8237435;28;20234;-68
2021/04/08 00:27:24;;;;;;;8.40;4.53;;;;;;;5.11;56.21;98263.19;8236750;28;20207;-69
2021/04/08 00:31:26;;;;;;;6.77;5.07;;;;;;;5.11;56.30;98265.75;8236518;28;20610;-69
2021/04/08 00:35:31;;;;;;;8.97;5.00;;;;;;;5.11;56.25;98278.59;8236696;28;20210;-69
2021/04/08 00:39:33;;;;;;;8.17;5.17;;;;;;;5.07;55.73;98279.53;8236843;28;20513;-69
2021/04/08 00:43:35;;;;;;;10.50;5.20;;;;;;;5.05;55.83;98279.53;8235680;28;20720;-69
2021/04/08 00:47:37;;;;;;;9.93;4.87;;;;;;;5.12;56.03;98280.25;8236607;28;20203;-68
2021/04/08 00:51:39;;;;;;;6.80;4.50;;;;;;;5.04;56.19;98282.13;8236157;28;20222;-68
2021/04/08 00:55:43;;;;;;;7.40;4.30;;;;;;;4.89;55.95;98283.22;8254235;28;20210;-68
2021/04/08 00:59:46;;;;;;;9.10;4.93;;;;;;;4.95;55.95;98289.97;8267701;28;20301;-68
2021/04/08 01:03:48;;;;;;;9.93;4.90;;;;;;;4.85;55.86;98282.41;8268298;28;20212;-69
2021/04/08 01:07:50;;;;;;;7.07;4.27;;;;;;;4.83;55.42;98293.59;8267653;28;20206;-69
2021/04/08 01:11:51;;;;;;;8.80;4.57;;;;;;;4.69;55.26;98296.38;8267150;28;20210;-69
2021/04/08 01:15:55;;;;;;;11.37;4.20;;;;;;;4.73;55.14;98295.47;8266727;28;20221;-69
2021/04/08 01:20:43;;;;;;;10.07;4.57;;;;;;;4.82;54.52;98299.63;8267152;28;20225;-68
2021/04/08 01:25:06;;;;;;;7.23;4.30;;;;;;;4.79;54.48;98291.94;8267094;28;20209;-68
2021/04/08 01:29:09;;;;;;;9.03;4.37;;;;;;;4.73;55.32;98292.06;8267320;28;20209;-68
2021/04/08 01:33:17;;;;;;;9.47;4.33;;;;;;;4.63;55.21;98293.91;8266666;28;20332;-68
2021/04/08 01:37:28;;;;;;;9.80;4.40;;;;;;;4.59;54.86;98297.38;8266520;28;20202;-69
2021/04/08 01:41:35;;;;;;;6.93;4.20;;;;;;;4.52;55.01;98306.91;8266519;28;20233;-68
2021/04/08 01:45:37;;;;;;;9.17;4.07;;;;;;;4.56;55.16;98305.13;8266455;28;20241;-69
2021/04/08 01:49:41;;;;;;;9.43;4.80;;;;;;;4.63;55.14;98317.00;8266630;28;20795;-68
2021/04/08 01:53:47;;;;;;;7.53;4.33;;;;;;;4.48;54.68;98318.91;8265996;28;20205;-69
2021/04/08 01:57:49;;;;;;;9.20;4.20;;;;;;;4.61;54.78;98323.88;8265775;28;20197;-68
2021/04/08 02:01:53;;;;;;;8.40;4.07;;;;;;;4.47;54.81;98317.22;8265577;28;20226;-68
2021/04/08 02:05:56;;;;;;;8.27;4.20;;;;;;;4.39;53.72;98321.59;8265507;28;20248;-69
2021/04/08 02:09:58;;;;;;;9.73;3.80;;;;;;;4.44;54.10;98327.53;8266198;28;20217;-68
2021/04/08 02:14:00;;;;;;;8.13;4.00;;;;;;;4.28;54.01;98326.91;8265739;28;20229;-69
2021/04/08 02:18:03;;;;;;;8.47;3.93;;;;;;;4.41;53.84;98324.16;8265922;28;20213;-69
2021/04/08 02:22:06;;;;;;;9.50;3.93;;;;;;;4.41;53.62;98321.59;8265186;28;20229;-68
2021/04/08 02:26:09;;;;;;;8.90;4.43;;;;;;;4.48;53.56;98331.72;8264493;28;20254;-69
2021/04/08 02:30:14;;;;;;;8.33;4.20;;;;;;;4.39;53.38;98329.28;8265217;28;20533;-69
2021/04/08 02:34:16;;;;;;;7.97;4.03;;;;;;;4.39;53.30;98334.44;8264681;28;20213;-68
2021/04/08 02:38:20;;;;;;;8.33;4.30;;;;;;;4.42;53.65;98333.56;8264758;28;20213;-69
2021/04/08 02:42:22;;;;;;;7.07;4.13;;;;;;;4.56;53.11;98335.91;8264301;28;20240;-68
2021/04/08 02:46:24;;;;;;;8.77;4.33;;;;;;;4.51;53.49;98335.97;8264333;28;20690;-68
2021/04/08 02:50:26;;;;;;;7.37;3.83;;;;;;;4.41;53.37;98340.38;8264438;28;20599;-68
2021/04/08 02:54:33;;;;;;;9.17;4.33;;;;;;;4.44;53.63;98347.19;8264097;28;20610;-68
2021/04/08 02:58:36;;;;;;;7.60;3.93;;;;;;;4.59;53.52;98352.13;8264362;28;20582;-68
2021/04/08 03:02:39;;;;;;;8.50;4.43;;;;;;;4.46;53.46;98358.28;8263731;28;20229;-68
2021/04/08 03:06:42;;;;;;;10.17;4.33;;;;;;;4.46;53.26;98373.66;8264563;28;20221;-69
2021/04/08 03:10:45;;;;;;;7.13;4.47;;;;;;;4.47;53.58;98372.78;8263686;28;20644;-68
2021/04/08 03:14:50;;;;;;;8.07;3.57;;;;;;;4.53;53.44;98371.84;8263746;28;20209;-68
2021/04/08 03:18:53;;;;;;;7.00;4.17;;;;;;;4.34;53.96;98372.13;8263996;28;20217;-68
2021/04/08 03:22:57;;;;;;;8.83;4.13;;;;;;;4.45;53.30;98374.53;8263497;28;20230;-68
2021/04/08 03:27:01;;;;;;;11.07;4.23;;;;;;;4.53;53.20;98382.97;8263762;28;20204;-69
2021/04/08 03:31:04;;;;;;;8.27;4.20;;;;;;;4.54;53.04;98383.81;8263351;28;20232;-68
2021/04/08 03:35:08;;;;;;;8.73;4.00;;;;;;;4.46;53.05;98387.34;8263535;28;20206;-68
2021/04/08 03:39:10;;;;;;;9.53;3.90;;;;;;;4.34;52.94;98384.06;8268422;28;20213;-69
2021/04/08 03:43:14;;;;;;;7.93;4.40;;;;;;;4.56;52.95;98389.78;8269847;28;20519;-68
2021/04/08 03:47:16;;;;;;;8.80;4.30;;;;;;;4.36;52.86;98410.53;8269840;28;20206;-68
2021/04/08 03:51:19;;;;;;;8.67;4.63;;;;;;;4.36;53.54;98406.28;8269988;28;20281;-69
2021/04/08 03:55:23;;;;;;;7.20;3.80;;;;;;;4.45;52.92;98415.56;8269486;28;20210;-68
2021/04/08 03:59:26;;;;;;;10.83;4.27;;;;;;;4.19;52.58;98416.75;8269435;28;20206;-68
2021/04/08 04:03:28;;;;;;;10.17;4.07;;;;;;;4.21;52.90;98427.81;8269536;28;20260;-68
2021/04/08 04:07:30;;;;;;;6.93;3.80;;;;;;;4.17;52.85;98428.72;8269736;28;20497;-69
2021/04/08 04:11:33;;;;;;;8.27;3.93;;;;;;;4.33;52.92;98431.94;8269526;28;20214;-68
2021/04/08 04:15:36;;;;;;;7.83;4.20;;;;;;;4.30;52.92;98432.84;8269564;28;20209;-69
2021/04/08 04:19:38;;;;;;;5.83;3.60;;;;;;;4.29;52.65;98428.56;8269317;28;20201;-69
2021/04/08 04:23:40;;;;;;;7.63;4.03;;;;;;;4.44;52.22;98440.38;8268798;28;20229;-69
2021/04/08 04:27:42;;;;;;;8.90;3.43;;;;;;;4.32;52.17;98435.38;8268676;28;20212;-69
2021/04/08 04:31:45;;;;;;;8.67;4.00;;;;;;;4.48;52.16;98443.75;8268470;28;20654;-68
2021/04/08 04:35:47;;;;;;;9.83;4.07;;;;;;;4.33;51.77;98441.38;8268669;28;20242;-69
2021/04/08 04:39:49;;;;;;;10.97;3.97;;;;;;;4.44;51.28;98445.50;8268330;28;20201;-69
2021/04/08 04:43:51;;;;;;;9.47;3.80;;;;;;;4.27;51.66;98443.13;8268019;28;20234;-69
2021/04/08 04:47:54;;;;;;;10.60;3.90;;;;;;;4.36;51.63;98446.44;8268287;28;20645;-68
2021/04/08 04:51:56;;;;;;;10.07;4.30;;;;;;;4.45;51.44;98461.72;8267910;28;20206;-68
2021/04/08 04:55:58;;;;;;;8.03;4.03;;;;;;;4.33;51.71;98472.97;8268021;28;20228;-69
2021/04/08 04:59:59;;;;;;;7.20;4.10;;;;;;;4.34;51.88;98473.81;8267870;28;20218;-69
2021/04/08 05:04:02;;;;;;;12.77;4.60;;;;;;;4.08;52.00;98468.13;8268147;28;20230;-68
2021/04/08 05:08:05;;;;;;;13.43;4.53;;;;;;;4.31;52.08;98485.81;8265553;28;20222;-69
2021/04/08 05:12:08;;;;;;;9.40;5.10;;;;;;;4.18;51.49;98485.97;8265461;28;20221;-68
2021/04/08 05:16:10;;;;;;;11.03;4.10;;;;;;;4.26;51.50;98489.28;8265504;28;20210;-68
2021/04/08 05:20:14;;;;;;;9.53;4.17;;;;;;;4.23;51.64;98490.19;8265132;28;20198;-68
2021/04/08 05:24:16;;;;;;;8.40;4.37;;;;;;;4.24;51.49;98499.56;8265172;28;20210;-69
2021/04/08 05:28:18;;;;;;;9.70;4.07;;;;;;;4.38;51.02;98512.25;8264970;28;20618;-68
2021/04/08 05:32:20;;;;;;;7.77;4.10;;;;;;;4.37;50.88;98514.81;8265077;28;20216;-68
2021/04/08 05:36:23;;;;;;;10.23;4.80;;;;;;;4.16;51.20;98523.59;8267081;28;20546;-68
2021/04/08 05:40:25;;;;;;;11.03;4.30;;;;;;;4.58;50.70;98529.13;8267735;28;20211;-68
2021/04/08 05:44:26;;;;;;;8.27;4.27;;;;;;;4.56;51.02;98541.13;8266790;28;20661;-69
2021/04/08 05:48:28;;;;;;;8.63;4.33;;;;;;;4.57;50.35;98540.25;8266435;28;20228;-68
2021/04/08 05:52:31;;;;;;;9.97;4.53;;;;;;;5.02;49.56;98541.41;8266416;28;20220;-68
2021/04/08 05:56:33;;;;;;;7.73;4.80;;;;;;;4.99;49.48;98550.88;8265840;28;20205;-68
2021/04/08 06:00:35;;;;;;;11.17;5.17;;;;;;;4.85;50.10;98554.44;8266052;28;20213;-68
2021/04/08 06:04:36;;;;;;;7.47;4.20;;;;;;;5.63;48.50;98552.56;8266041;28;20284;-68
2021/04/08 06:08:39;;;;;;;7.50;4.07;;;;;;;5.93;47.35;98549.53;8265566;28;20301;-69
2021/04/08 06:12:41;;;;;;;10.10;5.07;;;;;;;5.72;47.86;98555.88;8265682;28;20210;-68
2021/04/08 06:16:43;;;;;;;9.43;4.60;;;;;;;6.17;46.33;98558.59;8265806;28;20206;-68
2021/04/08 06:20:45;;;;;;;7.60;4.37;;;;;;;6.90;45.70;98571.00;8264277;28;20673;-68
2021/04/08 06:24:47;;;;;;;8.83;5.00;;;;;;;6.82;45.26;98573.72;8265464;28;20319;-68
2021/04/08 06:28:49;;;;;;;9.30;4.90;;;;;;;6.58;45.75;98575.03;8265705;28;20205;-69
2021/04/08 06:32:52;;;;;;;10.27;4.60;;;;;;;6.44;46.30;98580.44;8265588;28;20289;-68
2021/04/08 06:36:55;;;;;;;8.67;4.87;;;;;;;6.21;45.71;98581.66;8265486;28;20221;-69
2021/04/08 06:41:00;;;;;;;8.93;4.73;;;;;;;5.89;46.73;98582.16;8271074;28;20221;-69
2021/04/08 06:45:04;;;;;;;9.70;4.50;;;;;;;5.85;47.46;98581.34;8264937;28;20646;-69
2021/04/08 06:49:10;;;;;;;10.97;5.03;;;;;;;6.12;47.10;98583.56;8267129;28;20201;-69
2021/04/08 06:53:13;;;;;;;8.83;4.60;;;;;;;5.89;46.92;98582.16;8269590;28;20289;-69
2021/04/08 06:57:17;;;;;;;11.90;4.77;;;;;;;5.82;46.98;98590.84;8281553;28;20206;-69
2021/04/08 07:01:21;;;;;;;9.43;4.93;;;;;;;5.74;47.20;98590.94;8271859;28;20217;-69
2021/04/08 07:05:23;;;;;;;9.60;5.17;;;;;;;5.92;47.26;98597.56;8264094;28;20297;-69
2021/04/08 07:09:25;;;;;;;9.63;5.00;;;;;;;5.87;47.19;98600.19;8264361;28;20661;-69
2021/04/08 07:13:29;;;;;;;9.73;5.10;;;;;;;5.91;47.41;98608.69;8268678;28;20492;-69
2021/04/08 07:17:30;;;;;;;12.90;4.97;;;;;;;5.80;47.62;98615.72;8264228;28;20205;-69
2021/04/08 07:21:37;;;;;;;11.23;5.17;;;;;;;5.74;48.16;98616.66;8263979;28;20617;-69
2021/04/08 07:26:00;;;;;;;10.87;4.90;;;;;;;5.96;47.63;98619.78;8262621;28;20236;-69
2021/04/08 07:30:04;;;;;;;10.33;5.40;;;;;;;5.79;47.93;98627.72;8262864;28;20205;-69
2021/04/08 07:34:05;;;;;;;9.03;5.17;;;;;;;5.90;48.63;98631.84;8263528;28;20225;-69
2021/04/08 07:38:08;;;;;;;8.27;4.93;;;;;;;6.15;47.55;98638.38;8263874;28;20206;-69
2021/04/08 07:42:11;;;;;;;10.53;5.43;;;;;;;6.31;46.47;98644.09;8263635;28;20276;-69
2021/04/08 07:46:33;;;;;;;10.13;5.33;;;;;;;6.41;47.23;98647.38;8263234;28;20291;-69
2021/04/08 07:50:36;;;;;;;13.83;5.50;;;;;;;6.40;46.79;98656.81;8263361;28;20649;-69
2021/04/08 07:54:38;;;;;;;10.37;5.47;;;;;;;6.49;46.44;98660.09;8263437;28;20210;-69
2021/04/08 07:58:40;;;;;;;8.27;5.53;;;;;;;6.90;45.20;98667.09;8263433;28;20221;-69
2021/04/08 08:02:43;;;;;;;7.90;4.80;;;;;;;7.49;45.82;98673.72;8263306;28;20225;-69
2021/04/08 08:06:45;;;;;;;10.20;5.23;;;;;;;7.69;43.57;98668.13;8263224;28;20289;-69
2021/04/08 08:10:55;;;;;;;7.80;4.90;;;;;;;7.78;44.24;98670.50;8262973;28;20666;-69
2021/04/08 08:15:13;;;;;;;13.87;5.20;;;;;;;8.02;42.34;98666.53;8261601;28;20210;-69
2021/04/08 08:19:19;;;;;;;8.63;4.60;;;;;;;8.10;41.79;98674.94;8263084;28;20264;-69
2021/04/08 08:23:33;;;;;;;10.87;5.13;;;;;;;8.07;42.52;98680.16;8262905;28;20236;-69
2021/04/08 08:27:47;;;;;;;9.70;5.30;;;;;;;8.88;41.54;98684.28;8268080;28;20202;-69
2021/04/08 08:31:51;;;;;;;10.27;5.10;;;;;;;9.42;42.02;98690.56;8269129;28;20252;-69
2021/04/08 08:35:56;;;;;;;12.23;5.20;;;;;;;10.00;39.03;98693.22;8268928;28;20643;-69
2021/04/08 08:39:58;;;;;;;10.37;5.93;;;;;;;10.37;37.61;98686.00;8269323;28;20209;-69
2021/04/08 08:44:00;;;;;;;10.13;5.00;;;;;;;11.24;38.91;98691.72;8269550;28;20233;-70
2021/04/08 08:48:04;;;;;;;9.03;4.47;;;;;;;11.76;36.39;98701.94;8269276;28;20213;-68
2021/04/08 08:52:09;;;;;;;14.43;5.30;;;;;;;11.39;36.27;98700.72;8269588;28;20202;-70
2021/04/08 08:56:12;;;;;;;7.87;4.03;;;;;;;12.15;35.66;98703.09;8269784;28;20201;-70
2021/04/08 09:00:15;;;;;;;13.53;4.50;;;;;;;12.74;35.04;98712.00;8271091;28;20765;-68
2021/04/08 09:04:17;;;;;;;10.03;4.40;;;;;;;12.70;35.12;98708.72;8269053;28;20242;-68
2021/04/08 09:08:31;;;;;;;8.17;4.53;;;;;;;12.91;32.79;98706.97;8268831;28;20638;-68
2021/04/08 09:12:35;;;;;;;8.07;4.13;;;;;;;11.91;34.45;98704.00;8267017;28;20260;-71
2021/04/08 09:16:43;;;;;;;7.77;4.27;;;;;;;12.07;33.81;98712.06;8267966;28;20228;-68
2021/04/08 09:20:45;;;;;;;9.63;3.80;;;;;;;11.31;36.07;98718.31;8267225;28;20648;-67
2021/04/08 09:24:48;;;;;;;8.17;4.40;;;;;;;11.20;35.63;98723.03;8267223;28;20206;-68
2021/04/08 09:28:51;;;;;;;9.20;4.40;;;;;;;10.61;35.43;98713.78;8267097;28;20206;-68
2021/04/08 09:32:56;;;;;;;9.67;4.40;;;;;;;11.57;34.38;98706.13;8267042;28;20244;-68
2021/04/08 09:36:58;;;;;;;9.20;4.07;;;;;;;11.66;34.45;98713.59;8268665;28;20209;-68
2021/04/08 09:41:02;;;;;;;7.37;4.00;;;;;;;12.43;32.80;98708.94;8293245;28;20216;-68
2021/04/08 09:45:06;;;;;;;16.03;3.57;;;;;;;13.35;42.99;98714.66;8299235;28;20233;-67
2021/04/08 09:49:08;;;;;;;12.47;3.77;;;;;;;13.54;34.61;98700.84;8261305;28;20257;-67
2021/04/08 09:53:11;;;;;;;8.80;3.30;;;;;;;12.86;32.98;98703.72;8260291;28;20293;-67
2021/04/08 09:57:37;;;;;;;7.00;4.03;;;;;;;12.39;32.84;98709.09;8258694;28;20214;-67
2021/04/08 10:01:39;;;;;;;7.93;3.87;;;;;;;11.23;34.11;98704.75;8264349;28;20261;-68
2021/04/08 10:05:42;;;;;;;8.80;3.87;;;;;;;10.83;34.52;98713.88;8241443;28;20228;-67
2021/04/08 10:09:54;;;;;;;8.00;3.80;;;;;;;10.19;36.75;98715.03;8259324;28;20237;-67
2021/04/08 10:13:56;;;;;;;11.57;4.60;;;;;;;10.16;37.17;98705.59;8287889;28;20231;-67
2021/04/08 10:17:58;;;;;;;10.03;4.07;;;;;;;10.29;36.58;98710.41;8295088;28;20256;-67
2021/04/08 10:22:01;;;;;;;7.57;4.10;;;;;;;10.07;36.32;98710.22;8280754;28;20259;-67
2021/04/08 10:26:05;;;;;;;10.00;5.27;;;;;;;10.75;35.28;98706.38;8279193;28;20660;-67
2021/04/08 10:30:15;;;;;;;8.03;5.07;;;;;;;10.25;36.15;98704.50;8291659;28;20279;-67
2021/04/08 10:34:19;;;;;;;9.17;5.07;;;;;;;9.91;36.37;98707.25;8294173;28;20230;-67
2021/04/08 10:38:21;;;;;;;10.03;5.83;;;;;;;9.89;36.38;98716.81;8280855;28;20205;-67
2021/04/08 10:42:25;;;;;;;10.03;5.57;;;;;;;9.90;37.47;98702.97;8273418;28;20230;-67
2021/04/08 10:46:27;;;;;;;6.60;4.17;;;;;;;10.77;36.51;98709.75;8257104;28;20233;-67
2021/04/08 10:50:29;;;;;;;12.70;7.23;;;;;;;10.53;36.05;98707.09;8249047;28;20194;-67
2021/04/08 10:54:32;;;;;;;8.77;4.07;;;;;;;9.95;37.36;98714.03;8243430;28;20205;-67
2021/04/08 10:58:34;;;;;;;8.80;3.60;;;;;;;9.74;35.66;98706.00;8247904;28;20256;-67
2021/04/08 11:02:39;;;;;;;9.43;3.70;;;;;;;9.67;37.65;98698.47;8254333;28;20252;-67
2021/04/08 11:06:41;;;;;;;7.03;3.77;;;;;;;9.89;37.17;98701.28;8256086;28;20220;-67
2021/04/08 11:10:44;;;;;;;7.40;4.20;;;;;;;9.93;36.07;98708.06;8276823;28;20221;-67
2021/04/08 11:14:46;;;;;;;7.53;3.57;;;;;;;9.98;36.39;98711.38;8268618;28;20212;-67
2021/04/08 11:18:50;;;;;;;4.97;2.23;;;;;;;9.49;35.26;98708.44;8283119;28;20215;-67
2021/04/08 11:22:52;;;;;;;6.03;2.70;;;;;;;9.04;35.39;98703.63;8254903;28;20233;-66
2021/04/08 11:26:54;;;;;;;4.73;2.80;;;;;;;9.24;36.65;98707.44;8260745;28;20247;-66
2021/04/08 11:30:56;;;;;;;6.27;3.17;;;;;;;9.34;37.01;98716.63;8273848;28;20261;-66
2021/04/08 11:34:59;;;;;;;5.23;2.63;;;;;;;9.25;37.95;98709.13;8239016;28;20205;-66
2021/04/08 11:39:09;;;;;;;5.00;3.03;;;;;;;9.35;36.20;98715.75;8240183;28;20660;-66
2021/04/08 11:43:25;;;;;;;5.30;2.73;;;;;;;9.06;37.86;98712.19;8261429;28;20237;-66
2021/04/08 11:47:27;;;;;;;4.97;3.03;;;;;;;8.95;37.97;98707.31;8263369;28;20214;-66
2021/04/08 11:51:32;;;;;;;5.83;3.10;;;;;;;9.01;37.50;98714.06;8262547;28;20209;-67
2021/04/08 11:55:39;;;;;;;7.67;3.43;;;;;;;8.91;36.79;98705.72;8263290;28;20206;-67
2021/04/08 11:59:41;;;;;;;6.90;3.30;;;;;;;9.04;36.92;98700.22;8266497;28;20206;-67
2021/04/08 12:03:44;;;;;;;5.20;2.90;;;;;;;9.14;36.78;98697.34;8269447;28;20237;-67
2021/04/08 12:07:48;;;;;;;5.67;2.97;;;;;;;9.30;36.69;98708.13;8269298;28;20206;-67
2021/04/08 12:11:54;;;;;;;10.67;3.47;;;;;;;9.14;37.04;98712.03;8269252;28;20214;-67
2021/04/08 12:15:58;;;;;;;10.43;3.73;;;;;;;9.16;36.00;98705.91;8269987;28;20206;-67
2021/04/08 12:20:13;;;;;;;12.90;7.07;;;;;;;9.10;35.88;98712.97;8269296;28;20232;-67
2021/04/08 12:24:16;;;;;;;15.73;8.50;;;;;;;9.20;35.86;98707.53;8269081;28;20241;-67
2021/04/08 12:28:22;;;;;;;11.97;5.43;;;;;;;9.59;35.59;98696.97;8268266;28;20642;-67
2021/04/08 12:32:28;;;;;;;9.53;5.07;;;;;;;10.05;35.33;98689.59;8268479;28;20596;-67
2021/04/08 12:36:31;;;;;;;13.17;6.70;;;;;;;10.03;35.02;98688.75;8268550;28;20260;-67
2021/04/08 12:40:34;;;;;;;15.10;3.67;;;;;;;9.84;33.99;98685.03;8268120;28;20202;-67
2021/04/08 12:44:36;;;;;;;4.93;2.77;;;;;;;10.02;33.82;98681.06;8268097;28;20717;-67
2021/04/08 12:48:38;;;;;;;3.90;2.30;;;;;;;9.71;33.41;98674.22;8268184;28;20240;-67
2021/04/08 12:52:40;;;;;;;3.80;2.37;;;;;;;9.83;33.37;98678.19;8268613;28;20210;-67
2021/04/08 12:56:43;;;;;;;5.37;2.40;;;;;;;9.90;34.25;98679.69;8268265;28;20206;-67
2021/04/08 13:00:45;;;;;;;5.37;2.87;;;;;;;9.71;32.42;98675.06;8268719;28;20210;-67
2021/04/08 13:04:47;;;;;;;4.67;2.17;;;;;;;9.73;31.54;98673.28;8269043;28;20226;-67
2021/04/08 13:08:49;;;;;;;4.77;2.27;;;;;;;10.36;31.59;98670.53;8268614;28;20525;-67
2021/04/08 13:12:52;;;;;;;5.23;2.70;;;;;;;10.11;31.41;98666.09;8267649;28;20209;-67
2021/04/08 13:16:54;;;;;;;4.57;2.60;;;;;;;10.10;31.59;98660.97;8268351;28;20517;-67
2021/04/08 13:20:57;;;;;;;4.80;2.90;;;;;;;10.41;31.68;98660.00;8267838;28;20206;-67
2021/04/08 13:24:58;;;;;;;6.73;3.00;;;;;;;10.06;31.72;98664.56;8267385;28;20623;-67
2021/04/08 13:29:01;;;;;;;7.27;2.60;;;;;;;10.18;32.40;98661.56;8267927;28;20325;-67
2021/04/08 13:33:03;;;;;;;4.07;2.37;;;;;;;10.24;33.85;98660.53;8268493;28;20232;-67
2021/04/08 13:37:05;;;;;;;4.03;2.63;;;;;;;10.48;33.77;98653.75;8268206;28;20301;-67
2021/04/08 13:41:07;;;;;;;6.77;2.70;;;;;;;10.43;31.72;98661.66;8267337;28;20284;-67
2021/04/08 13:45:11;;;;;;;2.83;2.20;;;;;;;10.56;31.34;98657.75;8266761;28;20252;-67
2021/04/08 13:49:14;;;;;;;5.33;2.30;;;;;;;10.42;31.94;98644.44;8266992;28;20220;-67
2021/04/08 13:53:15;;;;;;;4.10;2.37;;;;;;;10.42;31.40;98653.97;8266880;28;20216;-67
2021/04/08 13:57:17;;;;;;;3.63;2.07;;;;;;;10.60;32.12;98650.72;8265970;28;20557;-67
2021/04/08 14:01:20;;;;;;;5.30;2.73;;;;;;;10.62;31.23;98637.75;8265983;28;20553;-67
2021/04/08 14:05:22;;;;;;;7.40;3.33;;;;;;;10.23;32.41;98635.56;8266153;28;20229;-67
2021/04/08 14:09:25;;;;;;;4.20;2.40;;;;;;;10.33;32.16;98635.22;8266802;28;20610;-67
2021/04/08 14:13:26;;;;;;;4.80;2.50;;;;;;;10.17;31.51;98629.66;8265890;28;20535;-67
2021/04/08 14:17:29;;;;;;;4.77;3.47;;;;;;;10.18;32.15;98631.38;8266044;28;20202;-67
2021/04/08 14:21:32;;;;;;;5.40;3.00;;;;;;;9.91;32.07;98634.81;8264995;28;20216;-67
2021/04/08 14:25:34;;;;;;;4.50;2.80;;;;;;;9.87;33.44;98635.81;8266002;28;20205;-67
2021/04/08 14:29:36;;;;;;;5.30;3.30;;;;;;;9.88;33.86;98630.59;8265668;28;20202;-67
2021/04/08 14:33:40;;;;;;;9.03;3.70;;;;;;;9.83;33.22;98629.03;8265058;28;20339;-67
2021/04/08 14:37:42;;;;;;;5.90;3.10;;;;;;;9.97;32.11;98632.88;8265554;28;20212;-67
2021/04/08 14:41:44;;;;;;;4.53;2.97;;;;;;;9.92;33.32;98639.94;8265303;28;20202;-67
2021/04/08 14:45:45;;;;;;;12.70;5.37;;;;;;;9.90;33.87;98635.69;8264944;28;20785;-67
2021/04/08 14:49:48;;;;;;;7.97;4.10;;;;;;;9.67;34.05;98626.06;8264462;28;20684;-67
2021/04/08 14:53:50;;;;;;;8.90;3.20;;;;;;;9.60;33.52;98628.00;8264682;28;20558;-67
2021/04/08 14:57:52;;;;;;;6.63;2.70;;;;;;;9.60;34.43;98625.41;8264526;28;20201;-67
2021/04/08 15:01:54;;;;;;;7.87;3.00;;;;;;;9.74;33.07;98618.06;8264212;28;20234;-67
2021/04/08 15:05:57;;;;;;;7.60;3.60;;;;;;;9.77;33.21;98620.56;8264238;28;20225;-67
2021/04/08 15:09:59;;;;;;;7.07;3.10;;;;;;;9.47;33.22;98609.41;8263976;28;20535;-67
2021/04/08 15:14:00;;;;;;;6.03;2.83;;;;;;;9.72;33.78;98611.25;8263906;28;20233;-67
2021/04/08 15:18:02;;;;;;;7.57;3.40;;;;;;;9.71;33.35;98612.13;8264203;28;20654;-67
2021/04/08 15:22:06;;;;;;;6.33;2.90;;;;;;;9.57;32.98;98605.63;8264143;28;20273;-67
2021/04/08 15:26:08;;;;;;;4.37;2.43;;;;;;;9.75;32.88;98606.00;8263777;28;20584;-67
2021/04/08 15:30:14;;;;;;;7.07;3.23;;;;;;;9.67;32.40;98593.31;8263771;28;20226;-67
2021/04/08 15:34:16;;;;;;;7.33;4.20;;;;;;;9.90;32.50;98587.41;8262812;28;20206;-67
2021/04/08 15:38:18;;;;;;;6.50;2.93;;;;;;;9.92;32.74;98589.97;8263246;28;20209;-67
2021/04/08 15:42:20;;;;;;;5.00;3.33;;;;;;;10.00;32.83;98592.28;8263357;28;20335;-67
2021/04/08 15:46:22;;;;;;;8.03;3.27;;;;;;;9.97;33.25;98588.03;8262897;28;20292;-67
2021/04/08 15:50:24;;;;;;;4.77;2.80;;;;;;;10.06;33.14;98587.75;8262753;28;20268;-67
2021/04/08 15:54:27;;;;;;;5.07;2.90;;;;;;;9.95;33.41;98589.84;8263665;28;20213;-67
2021/04/08 15:58:29;;;;;;;6.47;2.70;;;;;;;10.00;33.02;98581.94;8263243;28;20205;-67
2021/04/08 16:02:30;;;;;;;6.77;2.80;;;;;;;10.02;33.31;98593.09;8262953;28;20316;-67
2021/04/08 16:06:33;;;;;;;7.30;2.93;;;;;;;9.81;33.06;98586.84;8262853;28;20304;-67
2021/04/08 16:10:36;;;;;;;6.53;3.13;;;;;;;10.16;33.07;98583.13;8263631;28;20213;-67
2021/04/08 16:14:38;;;;;;;8.87;3.57;;;;;;;10.22;31.63;98584.66;8263274;28;20587;-67
2021/04/08 16:18:40;;;;;;;6.03;3.53;;;;;;;10.11;31.65;98575.53;8263123;28;20637;-67
2021/04/08 16:22:41;;;;;;;6.43;2.90;;;;;;;10.06;31.84;98572.22;8262964;28;20240;-67
2021/04/08 16:26:46;;;;;;;6.90;2.90;;;;;;;9.93;31.70;98570.94;8263162;28;20206;-67
2021/04/08 16:30:48;;;;;;;6.20;3.77;;;;;;;9.94;30.95;98570.88;8263209;28;20603;-67
2021/04/08 16:34:50;;;;;;;7.03;4.67;;;;;;;9.90;31.27;98563.25;8263128;28;20633;-67
2021/04/08 16:38:52;;;;;;;4.70;3.20;;;;;;;9.75;30.58;98560.28;8262827;28;20520;-67
2021/04/08 16:42:55;;;;;;;7.30;4.30;;;;;;;9.75;31.77;98557.69;8262559;28;20222;-67
2021/04/08 16:46:57;;;;;;;11.20;7.47;;;;;;;9.73;31.93;98545.72;8266449;28;20209;-67
2021/04/08 16:50:59;;;;;;;8.37;3.40;;;;;;;9.72;32.23;98544.84;8268426;28;20202;-67
2021/04/08 16:55:04;;;;;;;7.63;5.00;;;;;;;9.67;31.91;98541.59;8268346;28;20213;-67
2021/04/08 16:59:06;;;;;;;8.33;5.63;;;;;;;9.67;32.08;98536.41;8268668;28;20233;-67
2021/04/08 17:03:09;;;;;;;5.03;3.33;;;;;;;9.51;31.72;98530.00;8268658;28;20518;-67
2021/04/08 17:07:10;;;;;;;8.40;5.27;;;;;;;9.40;31.75;98530.34;8268576;28;20206;-67
2021/04/08 17:11:12;;;;;;;7.30;4.07;;;;;;;9.41;31.53;98520.88;8268159;28;20198;-67
2021/04/08 17:15:16;;;;;;;7.30;4.40;;;;;;;9.27;32.20;98524.72;8267880;28;20243;-67
2021/04/08 17:19:17;;;;;;;8.00;4.40;;;;;;;9.29;32.08;98516.88;8267921;28;20252;-67
2021/04/08 17:23:19;;;;;;;9.77;5.57;;;;;;;9.06;32.39;98517.56;8267801;28;20222;-67
2021/04/08 17:27:21;;;;;;;5.37;3.90;;;;;;;9.02;32.51;98515.97;8267693;28;20635;-67
2021/04/08 17:31:25;;;;;;;6.00;4.70;;;;;;;9.10;32.88;98521.75;8267341;28;20256;-67
2021/04/08 17:35:28;;;;;;;6.47;4.40;;;;;;;9.12;32.76;98517.38;8266999;28;20207;-67
2021/04/08 17:39:29;;;;;;;10.73;5.30;;;;;;;9.01;33.47;98520.31;8267306;28;20202;-67
2021/04/08 17:43:32;;;;;;;8.13;5.47;;;;;;;8.99;33.36;98511.75;8266903;28;20319;-67
2021/04/08 17:47:35;;;;;;;9.20;5.90;;;;;;;8.88;34.14;98511.22;8266592;28;20662;-67
2021/04/08 17:51:38;;;;;;;9.70;5.90;;;;;;;8.83;33.89;98511.34;8266897;28;20293;-67
2021/04/08 17:55:39;;;;;;;8.50;4.80;;;;;;;8.75;34.08;98508.97;8248116;28;20516;-67
2021/04/08 17:59:41;;;;;;;6.47;3.93;;;;;;;8.76;34.42;98509.84;8234259;28;20623;-67
2021/04/08 18:03:44;;;;;;;7.70;4.20;;;;;;;8.65;36.35;98510.13;8233914;28;20674;-67
2021/04/08 18:07:47;;;;;;;8.33;5.03;;;;;;;8.56;36.29;98512.97;8233789;28;20226;-67
2021/04/08 18:11:49;;;;;;;7.93;5.47;;;;;;;8.61;37.45;98513.69;8233871;28;20225;-67
2021/04/08 18:15:51;;;;;;;12.53;7.30;;;;;;;8.28;36.18;98512.81;8234379;28;20253;-67
2021/04/08 18:19:54;;;;;;;10.07;5.87;;;;;;;8.19;37.59;98519.91;8233545;28;20265;-67
2021/04/08 18:23:56;;;;;;;12.03;6.00;;;;;;;8.25;37.75;98518.91;8233229;28;20272;-67
2021/04/08 18:27:58;;;;;;;9.13;5.77;;;;;;;8.32;36.35;98523.03;8232848;28;20283;-67
2021/04/08 18:31:59;;;;;;;10.67;6.43;;;;;;;8.27;38.52;98524.88;8233247;28;20202;-67
2021/04/08 18:36:03;;;;;;;17.00;12.47;;;;;;;8.16;38.79;98522.56;8232777;28;20239;-67
2021/04/08 18:40:06;;;;;;;55.50;31.13;;;;;;;8.06;40.08;98521.13;8233259;28;20207;-67
2021/04/08 18:44:08;;;;;;;61.20;34.53;;;;;;;7.93;40.02;98530.88;8232817;28;20728;-67
2021/04/08 18:48:10;;;;;;;64.47;34.33;;;;;;;7.86;40.54;98528.50;8233060;28;20304;-67
2021/04/08 18:52:16;;;;;;;63.50;33.43;;;;;;;7.84;41.53;98533.69;8232352;28;20548;-67
2021/04/08 18:56:19;;;;;;;34.40;23.77;;;;;;;7.68;40.77;98524.66;8255572;28;20281;-67
2021/04/08 19:00:21;;;;;;;31.53;23.77;;;;;;;7.56;42.02;98518.06;8264334;28;20533;-67
2021/04/08 19:04:24;;;;;;;37.73;22.80;;;;;;;7.50;41.85;98523.31;8264270;28;20313;-67
2021/04/08 19:08:26;;;;;;;34.27;21.87;;;;;;;7.41;42.03;98522.66;8263557;28;20206;-67
2021/04/08 19:12:28;;;;;;;30.77;19.67;;;;;;;7.35;42.84;98529.66;8264301;28;20202;-67